createdAt,value
2022-11-22T00:00:44.225Z,7.01
2022-11-22T00:03:11.957Z,7.01
2022-11-22T00:05:39.421Z,7.25
2022-11-22T00:08:06.923Z,7.07
2022-11-22T00:10:34.934Z,6.93
2022-11-22T00:13:02.504Z,6.79
2022-11-22T00:15:30.473Z,7.08
2022-11-22T00:17:58.040Z,7.01
2022-11-22T00:20:25.402Z,7.01
2022-11-22T00:22:52.829Z,7.01
2022-11-22T00:25:20.433Z,6.81
2022-11-22T00:27:47.774Z,7.05
2022-11-22T00:30:15.576Z,7.08
2022-11-22T00:32:43.195Z,7.10
2022-11-22T00:35:11.514Z,7.23
2022-11-22T00:37:38.889Z,7.06
2022-11-22T00:40:07.098Z,7.06
2022-11-22T00:42:34.381Z,7.20
2022-11-22T00:45:01.725Z,7.11
2022-11-22T00:47:29.270Z,7.01
2022-11-22T00:49:56.550Z,7.02
2022-11-22T00:52:23.821Z,7.02
2022-11-22T00:54:54.754Z,7.11
2022-11-22T00:57:22.998Z,7.17
2022-11-22T00:59:50.704Z,7.15
2022-11-22T01:02:18.011Z,7.19
2022-11-22T01:04:46.032Z,7.10
2022-11-22T01:07:13.666Z,6.99
2022-11-22T01:09:41.019Z,7.09
2022-11-22T01:12:08.678Z,7.17
2022-11-22T01:14:36.240Z,7.19
2022-11-22T01:17:03.560Z,7.14
2022-11-22T01:19:31.292Z,7.22
2022-11-22T01:21:58.980Z,7.19
2022-11-22T01:24:26.391Z,7.10
2022-11-22T01:26:53.921Z,7.20
2022-11-22T01:29:21.534Z,7.15
2022-11-22T01:31:48.831Z,7.13
2022-11-22T01:34:16.117Z,7.01
2022-11-22T01:36:43.665Z,7.10
2022-11-22T01:39:11.014Z,7.15
2022-11-22T01:41:38.389Z,7.19
2022-11-22T01:44:22.196Z,7.05
2022-11-22T01:46:51.926Z,7.06
2022-11-22T01:50:05.979Z,7.14
2022-11-22T01:52:33.742Z,7.11
2022-11-22T01:55:07.635Z,7.16
2022-11-22T01:57:37.670Z,7.06
2022-11-22T02:00:08.785Z,7.01
2022-11-22T02:02:41.432Z,7.02
2022-11-22T02:05:13.478Z,7.07
2022-11-22T02:07:45.307Z,7.20
2022-11-22T02:10:13.483Z,7.15
2022-11-22T02:12:42.014Z,7.17
2022-11-22T02:15:10.185Z,6.94
2022-11-22T02:17:37.819Z,7.13
2022-11-22T02:20:07.063Z,7.04
2022-11-22T02:22:45.070Z,7.24
2022-11-22T02:25:30.555Z,6.98
2022-11-22T02:27:58.066Z,7.11
2022-11-22T02:30:25.659Z,7.00
2022-11-22T02:32:52.982Z,7.03
2022-11-22T02:35:23.089Z,7.15
2022-11-22T02:37:55.269Z,7.07
2022-11-22T02:40:23.023Z,7.07
2022-11-22T02:42:54.303Z,7.12
2022-11-22T02:45:21.651Z,7.14
2022-11-22T02:47:48.990Z,7.10
2022-11-22T02:50:16.621Z,7.18
2022-11-22T02:52:44.007Z,7.19
2022-11-22T02:55:11.303Z,7.39
2022-11-22T02:57:38.862Z,7.32
2022-11-22T03:00:06.967Z,7.33
2022-11-22T03:02:34.294Z,7.33
2022-11-22T03:05:01.867Z,7.36
2022-11-22T03:07:29.326Z,7.32
2022-11-22T03:09:56.878Z,7.26
2022-11-22T03:12:24.503Z,7.29
2022-11-22T03:14:51.914Z,7.26
2022-11-22T03:17:19.193Z,7.43
2022-11-22T03:19:46.827Z,7.41
2022-11-22T03:22:14.214Z,7.42
2022-11-22T03:24:41.607Z,7.47
2022-11-22T03:27:09.203Z,7.37
2022-11-22T03:29:36.510Z,7.46
2022-11-22T03:32:03.910Z,7.44
2022-11-22T03:34:31.599Z,7.62
2022-11-22T03:36:58.929Z,7.55
2022-11-22T03:39:26.308Z,7.53
2022-11-22T03:41:56.294Z,7.54
2022-11-22T03:44:23.836Z,7.51
2022-11-22T03:46:51.143Z,7.56
2022-11-22T03:49:18.759Z,7.63
2022-11-22T03:51:46.065Z,7.55
2022-11-22T03:54:13.421Z,7.59
2022-11-22T03:56:40.987Z,7.72
2022-11-22T03:59:08.309Z,7.51
2022-11-22T04:01:35.643Z,7.63
2022-11-22T04:04:03.264Z,7.66
2022-11-22T04:06:30.603Z,7.69
2022-11-22T04:08:58.019Z,7.68
2022-11-22T04:11:25.747Z,7.53
2022-11-22T04:14:11.493Z,7.62
2022-11-22T04:16:39.200Z,7.60
2022-11-22T04:19:06.556Z,7.60
2022-11-22T04:21:34.227Z,7.60
2022-11-22T04:24:22.587Z,7.72
2022-11-22T04:26:50.191Z,7.49
2022-11-22T04:29:18.518Z,7.36
2022-11-22T04:32:05.128Z,7.49
2022-11-22T04:34:33.109Z,7.35
2022-11-22T04:37:01.149Z,7.57
2022-11-22T04:39:28.589Z,7.46
2022-11-22T04:42:15.384Z,7.30
2022-11-22T04:44:43.704Z,7.27
2022-11-22T04:47:13.317Z,7.31
2022-11-22T04:49:40.642Z,7.23
2022-11-22T04:52:27.726Z,7.21
2022-11-22T04:54:55.339Z,7.15
2022-11-22T04:57:22.657Z,7.13
2022-11-22T04:59:50.183Z,7.14
2022-11-22T05:02:17.769Z,7.14
2022-11-22T05:04:50.459Z,6.88
2022-11-22T05:07:18.451Z,6.88
2022-11-22T05:09:45.802Z,6.99
2022-11-22T05:12:13.163Z,6.96
2022-11-22T05:14:40.779Z,6.96
2022-11-22T05:17:11.631Z,7.00
2022-11-22T05:19:43.582Z,6.56
2022-11-22T05:22:13.814Z,6.52
2022-11-22T05:24:41.431Z,6.27
2022-11-22T05:27:09.095Z,6.57
2022-11-22T05:29:36.372Z,6.43
2022-11-22T05:32:04.156Z,6.22
2022-11-22T05:34:31.485Z,6.04
2022-11-22T05:36:59.195Z,6.28
2022-11-22T05:39:26.976Z,6.36
2022-11-22T05:41:57.251Z,6.39
2022-11-22T05:44:24.546Z,6.21
2022-11-22T05:46:52.097Z,6.06
2022-11-22T05:49:19.634Z,6.11
2022-11-22T05:51:46.928Z,6.22
2022-11-22T05:54:14.646Z,6.31
2022-11-22T05:56:42.051Z,6.31
2022-11-22T05:59:09.378Z,6.23
2022-11-22T06:01:36.945Z,6.22
2022-11-22T06:04:04.587Z,6.25
2022-11-22T06:06:32.029Z,6.24
2022-11-22T06:08:59.799Z,6.24
2022-11-22T06:11:28.082Z,6.17
2022-11-22T06:14:00.027Z,6.13
2022-11-22T06:16:27.598Z,6.18
2022-11-22T06:18:55.372Z,6.20
2022-11-22T06:21:24.701Z,6.12
2022-11-22T06:23:53.846Z,6.25
2022-11-22T06:26:22.807Z,6.23
2022-11-22T06:28:50.627Z,6.21
2022-11-22T06:31:21.078Z,6.29
2022-11-22T06:33:48.562Z,6.18
2022-11-22T06:36:18.222Z,6.26
2022-11-22T06:38:46.577Z,6.22
2022-11-22T06:41:16.245Z,6.13
2022-11-22T06:43:48.752Z,5.95
2022-11-22T06:46:18.748Z,5.85
2022-11-22T06:48:46.365Z,6.11
2022-11-22T06:51:18.947Z,6.08
2022-11-22T06:53:48.818Z,6.08
2022-11-22T06:56:23.694Z,6.04
2022-11-22T06:58:52.126Z,6.24
2022-11-22T07:01:21.746Z,6.30
2022-11-22T07:03:49.638Z,6.37
2022-11-22T07:06:18.702Z,6.39
2022-11-22T07:08:47.584Z,6.32
2022-11-22T07:11:20.343Z,6.55
2022-11-22T07:13:48.563Z,6.35
2022-11-22T07:16:18.540Z,6.22
2022-11-22T07:18:46.418Z,6.07
2022-11-22T07:21:16.548Z,6.14
2022-11-22T07:23:45.945Z,6.13
2022-11-22T07:26:14.533Z,6.28
2022-11-22T07:28:42.441Z,6.12
2022-11-22T07:31:11.623Z,6.46
2022-11-22T07:33:39.487Z,6.71
2022-11-22T07:36:11.283Z,6.72
2022-11-22T07:38:38.946Z,6.53
2022-11-22T07:41:07.361Z,6.60
2022-11-22T07:43:35.152Z,6.78
2022-11-22T07:46:05.579Z,6.78
2022-11-22T07:48:33.162Z,6.95
2022-11-22T07:51:05.743Z,6.81
2022-11-22T07:53:34.047Z,6.73
2022-11-22T07:56:05.631Z,7.04
2022-11-22T07:58:34.179Z,6.89
2022-11-22T08:01:06.805Z,6.74
2022-11-22T08:03:34.883Z,7.07
2022-11-22T08:06:03.810Z,7.09
2022-11-22T08:08:31.213Z,7.15
2022-11-22T08:10:58.863Z,7.04
2022-11-22T08:13:26.746Z,7.11
2022-11-22T08:15:54.860Z,7.21
2022-11-22T08:18:23.124Z,6.94
2022-11-22T08:20:50.485Z,7.01
2022-11-22T08:23:18.139Z,6.96
2022-11-22T08:25:45.772Z,6.71
2022-11-22T08:28:13.196Z,6.73
2022-11-22T08:30:40.499Z,6.79
2022-11-22T08:33:08.103Z,6.79
2022-11-22T08:35:35.471Z,6.90
2022-11-22T08:38:02.766Z,6.55
2022-11-22T08:40:30.319Z,6.66
2022-11-22T08:42:57.840Z,6.59
2022-11-22T08:45:25.417Z,6.79
2022-11-22T08:47:53.066Z,6.84
2022-11-22T08:50:20.406Z,6.71
2022-11-22T08:52:47.736Z,6.98
2022-11-22T08:55:15.491Z,6.82
2022-11-22T08:57:42.781Z,6.56
2022-11-22T09:00:11.373Z,6.54
2022-11-22T09:02:39.067Z,6.30
2022-11-22T09:05:06.461Z,6.28
2022-11-22T09:10:21.381Z,6.59
2022-11-22T09:12:48.781Z,6.55
2022-11-22T09:15:16.553Z,6.79
2022-11-22T09:17:44.326Z,6.55
2022-11-22T09:20:12.010Z,6.79
2022-11-22T09:22:39.705Z,6.71
2022-11-22T09:25:07.968Z,6.78
2022-11-22T09:27:35.894Z,6.82
2022-11-22T09:30:04.113Z,6.84
2022-11-22T09:32:33.841Z,6.86
2022-11-22T09:35:01.361Z,6.76
2022-11-22T09:37:28.751Z,6.91
2022-11-22T09:39:56.330Z,7.07
2022-11-22T09:43:01.518Z,7.22
2022-11-22T09:46:08.182Z,7.28
2022-11-22T09:48:53.746Z,7.38
2022-11-22T09:51:24.116Z,7.34
2022-11-22T09:54:00.089Z,7.45
2022-11-22T09:56:28.623Z,7.60
2022-11-22T09:58:59.428Z,7.60
2022-11-22T10:01:51.532Z,7.69
2022-11-22T10:04:28.981Z,7.87
2022-11-22T10:07:02.214Z,7.78
2022-11-22T10:10:14.993Z,8.00
2022-11-22T10:12:53.084Z,8.03
2022-11-22T10:15:44.147Z,7.77
2022-11-22T10:18:21.207Z,7.73
2022-11-22T10:20:49.489Z,8.10
2022-11-22T10:23:19.202Z,7.96
2022-11-22T10:26:23.212Z,8.01
2022-11-22T10:29:31.619Z,8.24
2022-11-22T10:32:13.517Z,8.07
2022-11-22T10:34:59.869Z,7.97
2022-11-22T10:37:39.562Z,7.96
2022-11-22T10:40:25.654Z,8.03
2022-11-22T10:43:05.150Z,7.81
2022-11-22T10:45:35.348Z,7.76
2022-11-22T10:48:13.745Z,7.78
2022-11-22T10:51:00.058Z,7.88
2022-11-22T10:53:48.362Z,7.85
2022-11-22T10:56:53.813Z,8.09
2022-11-22T10:59:47.303Z,7.85
2022-11-22T11:02:32.016Z,7.91
2022-11-22T11:05:01.013Z,7.80
2022-11-22T11:07:28.654Z,7.86
2022-11-22T11:10:18.017Z,7.98
2022-11-22T11:12:57.260Z,8.35
2022-11-22T11:15:44.037Z,8.18
2022-11-22T11:18:16.429Z,8.34
2022-11-22T11:20:44.010Z,8.50
2022-11-22T11:23:15.867Z,8.64
2022-11-22T11:25:48.367Z,8.63
2022-11-22T11:28:27.585Z,8.69
2022-11-22T11:31:01.063Z,8.59
2022-11-22T11:33:30.802Z,8.76
2022-11-22T11:36:14.301Z,8.84
2022-11-22T11:38:44.804Z,8.73
2022-11-22T11:41:20.997Z,8.86
2022-11-22T11:43:49.671Z,8.80
2022-11-22T11:46:27.040Z,8.84
2022-11-22T11:48:56.313Z,8.87
2022-11-22T11:51:39.098Z,8.55
2022-11-22T11:54:19.503Z,8.90
2022-11-22T11:56:57.902Z,8.91
2022-11-22T11:59:37.696Z,8.68
2022-11-22T12:02:11.112Z,8.64
2022-11-22T12:05:00.494Z,8.73
2022-11-22T12:07:39.244Z,8.79
2022-11-22T12:10:30.502Z,8.66
2022-11-22T12:13:04.585Z,8.82
2022-11-22T12:15:44.083Z,8.56
2022-11-22T12:18:30.875Z,8.75
2022-11-22T12:21:25.202Z,8.55
2022-11-22T12:24:42.804Z,8.80
2022-11-22T12:26:58.371Z,8.81
2022-11-22T12:29:26.001Z,8.73
2022-11-22T12:32:11.865Z,8.86
2022-11-22T12:34:45.443Z,8.89
2022-11-22T12:37:17.807Z,8.79
2022-11-22T12:39:48.168Z,8.94
2022-11-22T12:42:30.351Z,8.77
2022-11-22T12:45:28.669Z,8.63
2022-11-22T12:47:58.006Z,8.78
2022-11-22T12:50:49.558Z,8.65
2022-11-22T12:53:24.081Z,8.36
2022-11-22T12:56:09.488Z,8.33
2022-11-22T12:58:58.147Z,8.25
2022-11-22T13:01:29.032Z,8.13
2022-11-22T13:04:01.711Z,8.24
2022-11-22T13:06:34.866Z,8.30
2022-11-22T13:09:07.284Z,8.23
2022-11-22T13:11:39.411Z,8.06
2022-11-22T13:14:17.761Z,8.26
2022-11-22T13:16:50.390Z,8.35
2022-11-22T13:19:20.290Z,8.33
2022-11-22T13:22:00.162Z,8.29
2022-11-22T13:24:35.377Z,8.27
2022-11-22T13:27:19.167Z,7.87
2022-11-22T13:29:47.511Z,7.88
2022-11-22T13:32:20.755Z,7.95
2022-11-22T13:35:12.539Z,8.17
2022-11-22T13:37:49.006Z,8.15
2022-11-22T13:40:16.534Z,8.02
2022-11-22T13:42:44.125Z,8.02
2022-11-22T13:45:21.686Z,7.86
2022-11-22T13:47:49.537Z,7.79
2022-11-22T13:50:41.847Z,7.93
2022-11-22T13:53:31.413Z,7.93
2022-11-22T13:56:21.349Z,7.91
2022-11-22T13:58:51.759Z,7.63
2022-11-22T14:01:34.907Z,7.49
2022-11-22T14:04:21.076Z,7.70
2022-11-22T14:07:01.648Z,7.71
2022-11-22T14:09:51.153Z,7.80
2022-11-22T14:12:50.774Z,7.77
2022-11-22T14:15:41.394Z,7.54
2022-11-22T14:18:24.666Z,7.71
2022-11-22T14:21:05.798Z,7.77
2022-11-22T14:23:43.394Z,7.95
2022-11-22T14:26:20.066Z,7.53
2022-11-22T14:29:12.913Z,7.67
2022-11-22T14:31:40.735Z,7.34
2022-11-22T14:34:26.165Z,7.29
2022-11-22T14:37:12.508Z,7.42
2022-11-22T14:39:47.315Z,7.67
2022-11-22T14:42:41.046Z,7.68
2022-11-22T14:45:09.982Z,7.32
2022-11-22T14:47:47.866Z,7.53
2022-11-22T14:50:37.329Z,7.41
2022-11-22T14:53:29.538Z,7.46
2022-11-22T14:56:21.690Z,7.49
2022-11-22T14:58:58.313Z,7.70
2022-11-22T15:01:54.753Z,7.69
2022-11-22T15:09:11.062Z,7.62
2022-11-22T15:09:19.463Z,7.60
2022-11-22T15:10:43.674Z,7.40
2022-11-22T15:13:29.770Z,7.17
2022-11-22T15:59:42.078Z,6.99
2022-11-22T16:02:16.058Z,7.13
2022-11-22T16:04:49.267Z,7.19
2022-11-22T16:07:46.793Z,7.16
2022-11-22T16:10:27.224Z,7.25
2022-11-22T16:12:54.596Z,7.29
2022-11-22T16:15:38.523Z,7.20
2022-11-22T16:18:08.579Z,7.40
2022-11-22T16:20:37.750Z,7.46
2022-11-22T16:23:13.590Z,7.25
2022-11-22T16:25:44.030Z,7.40
2022-11-22T16:28:28.715Z,7.15
2022-11-22T16:30:58.432Z,7.03
2022-11-22T16:33:25.793Z,7.24
2022-11-22T16:35:55.015Z,7.19
2022-11-22T16:38:23.562Z,7.32
2022-11-22T16:40:51.099Z,7.35
2022-11-22T16:43:23.358Z,7.38
2022-11-22T16:45:50.850Z,7.11
2022-11-22T16:48:31.663Z,7.28
2022-11-22T16:51:12.955Z,7.22
2022-11-22T16:53:45.203Z,7.00
2022-11-22T16:56:19.679Z,7.25
2022-11-22T16:58:48.098Z,7.17
2022-11-22T17:01:18.918Z,7.07
2022-11-22T17:03:47.465Z,6.98
2022-11-22T17:06:22.317Z,7.26
2022-11-22T17:08:51.266Z,7.18
2022-11-22T17:11:20.845Z,7.01
2022-11-22T17:13:48.340Z,7.17
2022-11-22T17:16:19.303Z,7.13
2022-11-22T17:18:47.665Z,7.23
2022-11-22T17:21:16.845Z,7.03
2022-11-22T17:23:45.209Z,7.03
2022-11-22T17:26:12.559Z,7.15
2022-11-22T17:28:39.925Z,7.10
2022-11-22T17:31:14.941Z,7.13
2022-11-22T17:33:42.327Z,7.17
2022-11-22T17:36:20.982Z,7.41
2022-11-22T17:38:48.278Z,7.24
2022-11-22T17:41:16.171Z,7.28
2022-11-22T17:43:43.474Z,7.64
2022-11-22T17:46:10.822Z,7.69
2022-11-22T17:48:38.447Z,7.59
2022-11-22T17:51:12.529Z,7.73
2022-11-22T17:53:40.088Z,8.11
2022-11-22T17:56:11.510Z,7.94
2022-11-22T17:58:40.239Z,8.13
2022-11-22T18:01:10.084Z,7.87
2022-11-22T18:03:38.414Z,7.90
2022-11-22T18:06:06.739Z,7.86
2022-11-22T18:08:34.091Z,8.06
2022-11-22T18:11:02.413Z,7.77
2022-11-22T18:13:31.550Z,7.82
2022-11-22T18:16:03.433Z,7.91
2022-11-22T18:21:19.465Z,7.81
2022-11-22T18:23:47.063Z,7.64
2022-11-22T18:26:38.216Z,7.39
2022-11-22T18:29:35.574Z,7.58
2022-11-22T18:31:52.927Z,7.43
2022-11-22T18:34:24.382Z,7.57
2022-11-22T18:37:00.312Z,7.49
2022-11-22T18:39:33.936Z,7.64
2022-11-22T18:42:02.089Z,7.60
2022-11-22T18:44:29.709Z,7.65
2022-11-22T18:46:57.059Z,7.54
2022-11-22T18:49:24.423Z,7.63
2022-11-22T18:51:52.218Z,7.53
2022-11-22T18:54:21.609Z,7.39
2022-11-22T18:56:50.043Z,7.40
2022-11-22T18:59:17.736Z,7.33
2022-11-22T19:01:45.047Z,7.31
2022-11-22T19:04:16.227Z,7.35
2022-11-22T19:06:44.427Z,7.20
2022-11-22T19:09:12.052Z,7.51
2022-11-22T19:11:39.382Z,7.36
2022-11-22T19:14:07.035Z,7.42
2022-11-22T19:16:34.755Z,7.42
2022-11-22T19:19:02.150Z,7.43
2022-11-22T19:21:30.318Z,7.41
2022-11-22T19:23:57.914Z,7.37
2022-11-22T19:26:27.015Z,7.45
2022-11-22T19:28:56.150Z,7.55
2022-11-22T19:31:26.095Z,7.52
2022-11-22T19:33:53.488Z,7.56
2022-11-22T19:36:26.427Z,7.58
2022-11-22T19:38:58.049Z,7.44
2022-11-22T19:41:25.984Z,7.30
2022-11-22T19:43:53.383Z,7.25
2022-11-22T19:46:21.086Z,7.27
2022-11-22T19:48:52.859Z,7.40
2022-11-22T19:51:20.523Z,7.43
2022-11-22T19:53:48.218Z,7.44
2022-11-22T19:56:17.482Z,7.56
2022-11-22T19:58:53.078Z,7.38
2022-11-22T20:01:22.575Z,7.62
2022-11-22T20:03:58.807Z,7.61
2022-11-22T20:06:27.077Z,7.38
2022-11-22T20:09:00.759Z,7.23
2022-11-22T20:11:28.104Z,7.44
2022-11-22T20:13:55.698Z,7.51
2022-11-22T20:16:25.945Z,7.29
2022-11-22T20:18:54.724Z,7.31
2022-11-22T20:21:23.328Z,7.45
2022-11-22T20:23:51.922Z,7.22
2022-11-22T20:26:20.341Z,7.21
2022-11-22T20:28:48.364Z,7.27
2022-11-22T20:31:17.955Z,7.43
2022-11-22T20:33:49.740Z,7.55
2022-11-22T20:36:28.890Z,7.49
2022-11-22T20:38:56.579Z,7.59
2022-11-22T20:41:26.874Z,7.51
2022-11-22T20:43:54.493Z,7.59
2022-11-22T20:46:23.687Z,7.30
2022-11-22T20:48:53.100Z,7.22
2022-11-22T20:51:25.597Z,7.51
2022-11-22T20:53:53.926Z,7.35
2022-11-22T20:56:21.538Z,7.40
2022-11-22T20:58:49.246Z,7.58
2022-11-22T21:01:19.462Z,7.38
2022-11-22T21:03:47.039Z,7.30
2022-11-22T21:06:15.888Z,7.31
2022-11-22T21:08:45.732Z,7.35
2022-11-22T21:11:18.286Z,7.27
2022-11-22T21:13:47.113Z,7.15
2022-11-22T21:16:26.090Z,7.36
2022-11-22T21:19:01.828Z,7.31
2022-11-22T21:21:29.657Z,7.34
2022-11-22T21:23:59.977Z,7.05
2022-11-22T21:26:27.462Z,7.17
2022-11-22T21:28:55.099Z,7.29
2022-11-22T21:31:23.380Z,7.20
2022-11-22T21:33:51.420Z,7.49
2022-11-22T21:36:19.305Z,7.49
2022-11-22T21:38:47.232Z,7.51
2022-11-22T21:44:07.970Z,7.47
2022-11-22T21:46:35.298Z,7.42
2022-11-22T21:49:02.658Z,7.63
2022-11-22T21:51:30.284Z,7.28
2022-11-22T21:53:58.586Z,7.35
2022-11-22T21:56:26.795Z,7.30
2022-11-22T21:58:54.810Z,7.14
2022-11-22T22:01:22.517Z,7.24
2022-11-22T22:03:50.538Z,7.16
2022-11-22T22:06:18.400Z,7.25
2022-11-22T22:08:45.740Z,7.23
2022-11-22T22:11:13.445Z,7.22
2022-11-22T22:13:40.731Z,7.23
2022-11-22T22:16:12.761Z,7.49
2022-11-22T22:18:40.358Z,7.69
2022-11-22T22:21:09.657Z,7.71
2022-11-22T22:23:38.323Z,7.49
2022-11-22T22:26:14.203Z,7.51
2022-11-22T22:28:41.918Z,7.36
2022-11-22T22:31:17.149Z,7.21
2022-11-22T22:33:45.688Z,7.13
2022-11-22T22:36:13.864Z,7.36
2022-11-22T22:38:41.614Z,7.39
2022-11-22T22:41:10.921Z,7.40
2022-11-22T22:43:40.096Z,7.43
2022-11-22T22:46:19.494Z,7.36
2022-11-22T22:48:47.957Z,7.45
2022-11-22T22:51:16.583Z,7.45
2022-11-22T22:53:44.570Z,7.61
2022-11-22T22:56:13.989Z,7.55
2022-11-22T22:58:41.775Z,7.49
2022-11-22T23:01:17.373Z,7.25
2022-11-22T23:03:57.175Z,7.22
2022-11-22T23:06:33.937Z,7.31
2022-11-22T23:09:03.019Z,7.09
2022-11-22T23:11:50.108Z,7.26
2022-11-22T23:14:22.780Z,6.98
2022-11-22T23:16:54.560Z,7.12
2022-11-22T23:19:25.071Z,7.23
2022-11-22T23:21:52.353Z,7.08
2022-11-22T23:24:19.761Z,7.10
2022-11-22T23:26:47.618Z,7.19
2022-11-22T23:29:14.916Z,7.28
2022-11-22T23:31:42.321Z,7.34
2022-11-22T23:34:11.200Z,7.30
2022-11-22T23:36:40.985Z,7.17
2022-11-22T23:39:08.978Z,7.24
2022-11-22T23:41:36.597Z,7.35
2022-11-22T23:44:04.208Z,7.30
2022-11-22T23:46:31.499Z,7.12
2022-11-22T23:49:00.809Z,7.35
2022-11-22T23:51:29.054Z,7.17
2022-11-22T23:53:57.488Z,7.20
2022-11-22T23:56:25.533Z,7.09
2022-11-22T23:58:53.098Z,7.17
